Broad Blunsdon, United Kingdom
Current Conditions -  °F | °C
As of 4:58 PM on Saturday 20 Dec 2014 (Local Time) from EGVA Reporting Station
Clear Clear  
Wind Chill: 37°   Ceiling: Unl
Heat Index: 42°   Visibility: 6mi
Dew Point: 37°   Wind: 8mph
Humidity: 83%   Direction: 230°SW
Pressure: 30.38"   Gusts: NA
Location:  51.61°N, 1.78°W
Report Text: EGVA 201658Z AUTO 23007KT 9999 CLR 05/03 A3038 RMK AO2 SLP294 T00540027
Loading
Personal Weather Stations






























Interactive Weather Map New forecast layout! Learn more

10-Day Weather Forecast

Advertisements
Track Severe Weather on mobile